WMT723 LATI-EDDN
Flight info
| Callsign | WMT723 |
|---|---|
| Flight time | N/A |
| Altitude | 36000 |
| Route | INLOT DCT RETRA DCT GACMO DCT TEBLI DCT NEMAL DCT SIMBA DCT AKINI/N0427F300 Z109 UPALA UPALA1T |
| Aircraft | A21N/M-SDE1E2E3FGIJ1J4RWXY/LB1 |
Departure
| Time | 2026-04-30 14:25 |
|---|---|
| Airport | Tirana International Airport Mother Teresa (LATI) |
Arrival
| Time | N/A |
|---|---|
| Airport | Nuremberg Airport (EDDN) |
| Time | Latitude | Longitude | Altitude | Speed | Heading |
|---|---|---|---|---|---|
| 2026-04-30 14:07 | 41.42144 | 19.71487 | 114 ft | 0 kts | 265° |
| 2026-04-30 14:14 | 41.42144 | 19.71497 | 115 ft | 0 kts | 265° |
| 2026-04-30 14:14 | 41.42146 | 19.71515 | 115 ft | 2 kts | 247° |
| 2026-04-30 14:15 | 41.42154 | 19.71532 | 115 ft | 2 kts | 229° |
| 2026-04-30 14:15 | 41.42166 | 19.71545 | 115 ft | 2 kts | 209° |
| 2026-04-30 14:15 | 41.42180 | 19.71552 | 114 ft | 2 kts | 190° |
| 2026-04-30 14:15 | 41.42190 | 19.71553 | 114 ft | 0 kts | 176° |
| 2026-04-30 14:16 | 41.42187 | 19.71553 | 114 ft | 3 kts | 178° |
| 2026-04-30 14:16 | 41.42167 | 19.71555 | 115 ft | 0 kts | 174° |
| 2026-04-30 14:16 | 41.42166 | 19.71555 | 115 ft | 0 kts | 174° |
| 2026-04-30 14:19 | 41.42161 | 19.71556 | 115 ft | 3 kts | 174° |
| 2026-04-30 14:19 | 41.42094 | 19.71565 | 115 ft | 15 kts | 175° |
| 2026-04-30 14:19 | 41.41993 | 19.71578 | 116 ft | 11 kts | 175° |
| 2026-04-30 14:20 | 41.41904 | 19.71590 | 117 ft | 14 kts | 174° |
| 2026-04-30 14:20 | 41.41797 | 19.71603 | 118 ft | 17 kts | 175° |
| 2026-04-30 14:20 | 41.41554 | 19.71635 | 120 ft | 18 kts | 175° |
| 2026-04-30 14:21 | 41.41424 | 19.71650 | 122 ft | 18 kts | 173° |
| 2026-04-30 14:21 | 41.41302 | 19.71668 | 123 ft | 17 kts | 174° |
| 2026-04-30 14:21 | 41.41067 | 19.71697 | 124 ft | 16 kts | 173° |
| 2026-04-30 14:22 | 41.40952 | 19.71718 | 125 ft | 16 kts | 171° |
| 2026-04-30 14:22 | 41.40691 | 19.71768 | 127 ft | 19 kts | 174° |
| 2026-04-30 14:22 | 41.40558 | 19.71786 | 128 ft | 19 kts | 175° |
| 2026-04-30 14:23 | 41.40322 | 19.71886 | 129 ft | 17 kts | 143° |
| 2026-04-30 14:23 | 41.40245 | 19.72106 | 130 ft | 8 kts | 85° |
| 2026-04-30 14:24 | 41.40333 | 19.72208 | 129 ft | 12 kts | 352° |
| 2026-04-30 14:24 | 41.40635 | 19.72164 | 128 ft | 80 kts | 354° |
| 2026-04-30 14:25 | 41.42545 | 19.71932 | 405 ft | 169 kts | 354° |
| 2026-04-30 14:25 | 41.44785 | 19.71568 | 1828 ft | 168 kts | 355° |
| 2026-04-30 14:26 | 41.47245 | 19.71201 | 2783 ft | 191 kts | 0° |
| 2026-04-30 14:26 | 41.48627 | 19.71129 | 3188 ft | 208 kts | 0° |
| 2026-04-30 14:26 | 41.51804 | 19.70874 | 3970 ft | 248 kts | 358° |
| 2026-04-30 14:27 | 41.53569 | 19.70689 | 4611 ft | 258 kts | 357° |
| 2026-04-30 14:27 | 41.55320 | 19.70307 | 5471 ft | 260 kts | 347° |
| 2026-04-30 14:27 | 41.57024 | 19.69511 | 6366 ft | 260 kts | 339° |
| 2026-04-30 14:28 | 41.60333 | 19.67568 | 7985 ft | 264 kts | 337° |
| 2026-04-30 14:28 | 41.62003 | 19.66578 | 8720 ft | 267 kts | 336° |
| 2026-04-30 14:28 | 41.63713 | 19.65566 | 9464 ft | 270 kts | 336° |
| 2026-04-30 14:28 | 41.65430 | 19.64551 | 10154 ft | 273 kts | 335° |
| 2026-04-30 14:29 | 41.69019 | 19.62428 | 11133 ft | 294 kts | 335° |
| 2026-04-30 14:29 | 41.72158 | 19.60575 | 12256 ft | 299 kts | 335° |
| 2026-04-30 14:30 | 41.78590 | 19.56782 | 14405 ft | 307 kts | 333° |
| 2026-04-30 14:31 | 41.82526 | 19.54456 | 15599 ft | 310 kts | 333° |
| 2026-04-30 14:31 | 41.86505 | 19.52101 | 16666 ft | 314 kts | 332° |
| 2026-04-30 14:31 | 41.88506 | 19.50916 | 17138 ft | 317 kts | 331° |
| 2026-04-30 14:32 | 41.92557 | 19.48513 | 18168 ft | 319 kts | 330° |
| 2026-04-30 14:32 | 41.94590 | 19.47306 | 18668 ft | 320 kts | 330° |
| 2026-04-30 14:32 | 41.96653 | 19.46078 | 19157 ft | 322 kts | 330° |
| 2026-04-30 14:33 | 41.98743 | 19.44937 | 19587 ft | 328 kts | 333° |
| 2026-04-30 14:33 | 42.03105 | 19.42850 | 20462 ft | 333 kts | 334° |
| 2026-04-30 14:33 | 42.05286 | 19.41819 | 20880 ft | 336 kts | 334° |
| 2026-04-30 14:34 | 42.07523 | 19.40760 | 21299 ft | 339 kts | 334° |
| 2026-04-30 14:34 | 42.09785 | 19.39689 | 21728 ft | 341 kts | 333° |
| 2026-04-30 14:34 | 42.12038 | 19.38619 | 22153 ft | 344 kts | 333° |
| 2026-04-30 14:34 | 42.14299 | 19.37545 | 22567 ft | 346 kts | 333° |
| 2026-04-30 14:35 | 42.18095 | 19.35742 | 23271 ft | 350 kts | 333° |
| 2026-04-30 14:35 | 42.21181 | 19.34200 | 23803 ft | 351 kts | 329° |
| 2026-04-30 14:35 | 42.23397 | 19.32822 | 24279 ft | 349 kts | 325° |
| 2026-04-30 14:36 | 42.25538 | 19.31208 | 24751 ft | 346 kts | 321° |
| 2026-04-30 14:36 | 42.27593 | 19.29512 | 25181 ft | 347 kts | 321° |
| 2026-04-30 14:36 | 42.29657 | 19.27780 | 25591 ft | 349 kts | 321° |
| 2026-04-30 14:36 | 42.31726 | 19.26047 | 26000 ft | 350 kts | 321° |
| 2026-04-30 14:37 | 42.33835 | 19.24279 | 26389 ft | 351 kts | 321° |
| 2026-04-30 14:37 | 42.35902 | 19.22544 | 26782 ft | 352 kts | 321° |
| 2026-04-30 14:37 | 42.37982 | 19.20799 | 27157 ft | 354 kts | 321° |
| 2026-04-30 14:37 | 42.40081 | 19.19034 | 27530 ft | 355 kts | 321° |
| 2026-04-30 14:38 | 42.42179 | 19.17267 | 27894 ft | 357 kts | 321° |
| 2026-04-30 14:38 | 42.44286 | 19.15497 | 28233 ft | 359 kts | 321° |
| 2026-04-30 14:38 | 42.46421 | 19.13697 | 28567 ft | 360 kts | 321° |
| 2026-04-30 14:38 | 42.48552 | 19.11902 | 28918 ft | 361 kts | 321° |
| 2026-04-30 14:39 | 42.50713 | 19.10080 | 29253 ft | 363 kts | 321° |
| 2026-04-30 14:39 | 42.52839 | 19.08287 | 29575 ft | 364 kts | 321° |
| 2026-04-30 14:39 | 42.55018 | 19.06446 | 29815 ft | 368 kts | 321° |
| 2026-04-30 14:40 | 42.59445 | 19.02694 | 30269 ft | 376 kts | 322° |
| 2026-04-30 14:40 | 42.61650 | 19.00827 | 30590 ft | 376 kts | 322° |
| 2026-04-30 14:40 | 42.63909 | 18.98913 | 30861 ft | 378 kts | 322° |
| 2026-04-30 14:40 | 42.66140 | 18.97023 | 31110 ft | 380 kts | 322° |
| 2026-04-30 14:41 | 42.68386 | 18.95116 | 31350 ft | 382 kts | 322° |
| 2026-04-30 14:41 | 42.70641 | 18.93197 | 31566 ft | 384 kts | 322° |
| 2026-04-30 14:41 | 42.72933 | 18.91249 | 31783 ft | 386 kts | 322° |
| 2026-04-30 14:41 | 42.75190 | 18.89329 | 32026 ft | 388 kts | 322° |
| 2026-04-30 14:42 | 42.77501 | 18.87359 | 32254 ft | 389 kts | 322° |
| 2026-04-30 14:42 | 42.79770 | 18.85423 | 32451 ft | 391 kts | 322° |
| 2026-04-30 14:42 | 42.82101 | 18.83434 | 32635 ft | 394 kts | 322° |
| 2026-04-30 14:42 | 42.84423 | 18.81453 | 32834 ft | 395 kts | 322° |
| 2026-04-30 14:43 | 42.86734 | 18.79475 | 33028 ft | 397 kts | 323° |
| 2026-04-30 14:43 | 42.89078 | 18.77471 | 33247 ft | 398 kts | 322° |
| 2026-04-30 14:43 | 42.91399 | 18.75481 | 33487 ft | 398 kts | 323° |
| 2026-04-30 14:43 | 42.93758 | 18.73459 | 33745 ft | 397 kts | 323° |
| 2026-04-30 14:44 | 42.96084 | 18.71465 | 33979 ft | 397 kts | 323° |
| 2026-04-30 14:44 | 42.98391 | 18.69483 | 34203 ft | 397 kts | 323° |
| 2026-04-30 14:44 | 43.00743 | 18.67460 | 34384 ft | 397 kts | 323° |
| 2026-04-30 14:44 | 43.03064 | 18.65463 | 34543 ft | 399 kts | 323° |
| 2026-04-30 14:45 | 43.05411 | 18.63442 | 34694 ft | 400 kts | 323° |
| 2026-04-30 14:45 | 43.07776 | 18.61401 | 34858 ft | 401 kts | 323° |
| 2026-04-30 14:45 | 43.10126 | 18.59374 | 35023 ft | 402 kts | 323° |
| 2026-04-30 14:45 | 43.12508 | 18.57314 | 35145 ft | 404 kts | 323° |
| 2026-04-30 14:46 | 43.14867 | 18.55274 | 35284 ft | 405 kts | 323° |
| 2026-04-30 14:46 | 43.17263 | 18.53178 | 35416 ft | 406 kts | 323° |
| 2026-04-30 14:46 | 43.19640 | 18.51087 | 35533 ft | 407 kts | 323° |
| 2026-04-30 14:46 | 43.21218 | 18.49697 | 35615 ft | 408 kts | 323° |
| 2026-04-30 14:47 | 43.24386 | 18.46909 | 35794 ft | 409 kts | 324° |
| 2026-04-30 14:47 | 43.26801 | 18.44780 | 35963 ft | 410 kts | 324° |
| 2026-04-30 14:47 | 43.29193 | 18.42671 | 36089 ft | 411 kts | 324° |
| 2026-04-30 14:47 | 43.31615 | 18.40533 | 36123 ft | 413 kts | 324° |
| 2026-04-30 14:48 | 43.36433 | 18.36280 | 36114 ft | 414 kts | 324° |
| 2026-04-30 14:48 | 43.41298 | 18.31974 | 36154 ft | 415 kts | 323° |
| 2026-04-30 14:49 | 43.46122 | 18.27696 | 36326 ft | 415 kts | 324° |
| 2026-04-30 14:49 | 43.50957 | 18.23399 | 36232 ft | 414 kts | 324° |
| 2026-04-30 14:50 | 43.58195 | 18.16951 | 36177 ft | 414 kts | 324° |
| 2026-04-30 14:51 | 43.65436 | 18.10483 | 36167 ft | 416 kts | 324° |
| 2026-04-30 14:52 | 43.72719 | 18.03959 | 36183 ft | 417 kts | 324° |
| 2026-04-30 14:52 | 43.80002 | 17.97415 | 36175 ft | 417 kts | 324° |
| 2026-04-30 14:53 | 43.87301 | 17.90836 | 36210 ft | 418 kts | 324° |
| 2026-04-30 14:54 | 43.97006 | 17.82062 | 36216 ft | 419 kts | 324° |
| 2026-04-30 14:55 | 44.04328 | 17.75415 | 36201 ft | 420 kts | 324° |
| 2026-04-30 14:56 | 44.14091 | 17.66523 | 36228 ft | 419 kts | 325° |
| 2026-04-30 14:57 | 44.21397 | 17.59846 | 36251 ft | 420 kts | 325° |
| 2026-04-30 14:58 | 44.31118 | 17.50933 | 36246 ft | 420 kts | 325° |
| 2026-04-30 14:58 | 44.38434 | 17.44201 | 36243 ft | 420 kts | 325° |
| 2026-04-30 15:00 | 44.50573 | 17.32983 | 36217 ft | 419 kts | 324° |
| 2026-04-30 15:01 | 44.60259 | 17.23989 | 36224 ft | 420 kts | 325° |
| 2026-04-30 15:01 | 44.67543 | 17.17204 | 36250 ft | 421 kts | 325° |
| 2026-04-30 15:02 | 44.72405 | 17.12665 | 36260 ft | 421 kts | 325° |
| 2026-04-30 15:03 | 44.84548 | 17.01283 | 36286 ft | 420 kts | 325° |
| 2026-04-30 15:04 | 44.96704 | 16.89829 | 36287 ft | 421 kts | 325° |
| 2026-04-30 15:06 | 45.08865 | 16.78312 | 36297 ft | 422 kts | 326° |
| 2026-04-30 15:07 | 45.18573 | 16.69075 | 36295 ft | 421 kts | 326° |
| 2026-04-30 15:08 | 45.27896 | 16.59076 | 36288 ft | 423 kts | 322° |
| 2026-04-30 15:09 | 45.39502 | 16.46272 | 36292 ft | 422 kts | 323° |
| 2026-04-30 15:10 | 45.48735 | 16.36044 | 36292 ft | 423 kts | 323° |
| 2026-04-30 15:11 | 45.62638 | 16.20560 | 36306 ft | 424 kts | 322° |
| 2026-04-30 15:13 | 45.74234 | 16.07570 | 36313 ft | 425 kts | 323° |
| 2026-04-30 15:14 | 45.90506 | 15.89223 | 36315 ft | 426 kts | 323° |
| 2026-04-30 15:17 | 46.11366 | 15.65493 | 36325 ft | 426 kts | 324° |
| 2026-04-30 15:19 | 46.29861 | 15.44257 | 36306 ft | 426 kts | 324° |